sensor_id;sensor_type;location;lat;lon;timestamp;pressure;altitude;pressure_sealevel;temperature;humidity
6032;BME280;3044;43.232;27.972;2022-11-20T00:01:30;45148.09;;;-143.84;95.43
6032;BME280;3044;43.232;27.972;2022-11-20T00:03:58;45140.47;;;-143.84;95.40
6032;BME280;3044;43.232;27.972;2022-11-20T00:06:26;45144.28;;;-143.84;94.99
6032;BME280;3044;43.232;27.972;2022-11-20T00:08:55;45163.31;;;-143.84;95.22
6032;BME280;3044;43.232;27.972;2022-11-20T00:11:24;45138.56;;;-143.84;95.02
6032;BME280;3044;43.232;27.972;2022-11-20T00:13:55;45140.47;;;-143.84;94.96
6032;BME280;3044;43.232;27.972;2022-11-20T00:16:24;45165.22;;;-143.84;94.93
6032;BME280;3044;43.232;27.972;2022-11-20T00:18:52;45169.03;;;-143.84;94.68
6032;BME280;3044;43.232;27.972;2022-11-20T00:21:21;45153.81;;;-143.84;94.45
6032;BME280;3044;43.232;27.972;2022-11-20T00:23:49;45155.69;;;-143.84;94.36
6032;BME280;3044;43.232;27.972;2022-11-20T00:26:18;45146.19;;;-143.84;94.26
6032;BME280;3044;43.232;27.972;2022-11-20T00:28:49;45163.31;;;-143.84;94.05
6032;BME280;3044;43.232;27.972;2022-11-20T00:31:19;45163.31;;;-143.84;93.96
6032;BME280;3044;43.232;27.972;2022-11-20T00:33:46;45172.84;;;-143.84;93.71
6032;BME280;3044;43.232;27.972;2022-11-20T00:36:14;45148.09;;;-143.84;93.23
6032;BME280;3044;43.232;27.972;2022-11-20T00:38:42;45163.31;;;-143.84;92.86
6032;BME280;3044;43.232;27.972;2022-11-20T00:41:11;45136.66;;;-143.84;92.51
6032;BME280;3044;43.232;27.972;2022-11-20T00:43:39;45142.38;;;-143.84;92.20
6032;BME280;3044;43.232;27.972;2022-11-20T00:46:07;45150.00;;;-143.84;91.82
6032;BME280;3044;43.232;27.972;2022-11-20T00:48:36;45150.00;;;-143.84;91.83
6032;BME280;3044;43.232;27.972;2022-11-20T00:51:03;45157.59;;;-143.84;91.88
6032;BME280;3044;43.232;27.972;2022-11-20T00:53:30;45157.59;;;-143.84;91.41
6032;BME280;3044;43.232;27.972;2022-11-20T00:56:00;45098.56;;;-143.84;91.68
6032;BME280;3044;43.232;27.972;2022-11-20T00:58:30;45151.91;;;-143.84;91.94
6032;BME280;3044;43.232;27.972;2022-11-20T01:01:00;45150.00;;;-143.84;92.23
6032;BME280;3044;43.232;27.972;2022-11-20T01:03:31;45127.13;;;-143.84;92.54
6032;BME280;3044;43.232;27.972;2022-11-20T01:06:04;45134.75;;;-143.84;93.00
6032;BME280;3044;43.232;27.972;2022-11-20T01:08:32;45138.56;;;-143.84;93.48
6032;BME280;3044;43.232;27.972;2022-11-20T01:11:01;45163.31;;;-143.84;93.38
6032;BME280;3044;43.232;27.972;2022-11-20T01:13:29;45167.13;;;-143.84;93.69
6032;BME280;3044;43.232;27.972;2022-11-20T01:16:07;45163.31;;;-143.84;94.01
6032;BME280;3044;43.232;27.972;2022-11-20T01:18:35;45153.81;;;-143.84;94.45
6032;BME280;3044;43.232;27.972;2022-11-20T01:21:07;45134.75;;;-143.84;94.41
6032;BME280;3044;43.232;27.972;2022-11-20T01:23:35;45151.91;;;-143.84;94.27
6032;BME280;3044;43.232;27.972;2022-11-20T01:26:05;45159.50;;;-143.84;94.46
6032;BME280;3044;43.232;27.972;2022-11-20T01:28:33;45140.47;;;-143.84;94.48
6032;BME280;3044;43.232;27.972;2022-11-20T01:31:01;45136.66;;;-143.84;94.49
6032;BME280;3044;43.232;27.972;2022-11-20T01:33:28;45150.00;;;-143.84;94.61
6032;BME280;3044;43.232;27.972;2022-11-20T01:36:05;45140.47;;;-143.84;94.66
6032;BME280;3044;43.232;27.972;2022-11-20T01:38:33;45148.09;;;-143.84;94.39
6032;BME280;3044;43.232;27.972;2022-11-20T01:41:00;45169.03;;;-143.84;94.10
6032;BME280;3044;43.232;27.972;2022-11-20T01:43:27;45134.75;;;-143.84;94.15
6032;BME280;3044;43.232;27.972;2022-11-20T01:46:15;45167.13;;;-143.84;94.10
6032;BME280;3044;43.232;27.972;2022-11-20T01:48:48;45151.91;;;-143.84;93.72
6032;BME280;3044;43.232;27.972;2022-11-20T01:51:22;45146.19;;;-143.84;93.54
6032;BME280;3044;43.232;27.972;2022-11-20T01:53:51;45144.28;;;-143.84;93.43
6032;BME280;3044;43.232;27.972;2022-11-20T01:56:21;45134.75;;;-143.84;93.33
6032;BME280;3044;43.232;27.972;2022-11-20T01:58:51;45134.75;;;-143.84;93.11
6032;BME280;3044;43.232;27.972;2022-11-20T02:01:20;45144.28;;;-143.84;93.34
6032;BME280;3044;43.232;27.972;2022-11-20T02:03:48;45142.38;;;-143.84;93.22
6032;BME280;3044;43.232;27.972;2022-11-20T02:06:22;45138.56;;;-143.84;92.94
6032;BME280;3044;43.232;27.972;2022-11-20T02:08:51;45159.50;;;-143.84;92.63
6032;BME280;3044;43.232;27.972;2022-11-20T02:11:18;45130.94;;;-143.84;92.84
6032;BME280;3044;43.232;27.972;2022-11-20T02:13:46;45146.19;;;-143.84;92.82
6032;BME280;3044;43.232;27.972;2022-11-20T02:16:18;45151.91;;;-143.84;92.61
6032;BME280;3044;43.232;27.972;2022-11-20T02:18:46;45193.78;;;-143.84;92.64
6032;BME280;3044;43.232;27.972;2022-11-20T02:21:23;45127.13;;;-143.84;92.34
6032;BME280;3044;43.232;27.972;2022-11-20T02:24:04;45172.84;;;-143.84;92.40
6032;BME280;3044;43.232;27.972;2022-11-20T02:26:35;45134.75;;;-143.84;92.20
6032;BME280;3044;43.232;27.972;2022-11-20T02:29:04;45159.50;;;-143.84;91.97
6032;BME280;3044;43.232;27.972;2022-11-20T02:31:40;45125.22;;;-143.84;91.74
6032;BME280;3044;43.232;27.972;2022-11-20T02:34:08;45161.41;;;-143.84;91.46
6032;BME280;3044;43.232;27.972;2022-11-20T02:36:36;45155.69;;;-143.84;91.09
6032;BME280;3044;43.232;27.972;2022-11-20T02:39:07;45134.75;;;-143.84;91.12
6032;BME280;3044;43.232;27.972;2022-11-20T02:41:37;45132.84;;;-143.84;91.08
6032;BME280;3044;43.232;27.972;2022-11-20T02:44:05;45106.19;;;-143.84;90.73
6032;BME280;3044;43.232;27.972;2022-11-20T02:46:33;45144.28;;;-143.84;90.58
6032;BME280;3044;43.232;27.972;2022-11-20T02:49:01;45125.22;;;-143.84;90.36
6032;BME280;3044;43.232;27.972;2022-11-20T02:51:29;45117.63;;;-143.84;90.32
6032;BME280;3044;43.232;27.972;2022-11-20T02:53:57;45140.47;;;-143.84;90.32
6032;BME280;3044;43.232;27.972;2022-11-20T02:56:25;45130.94;;;-143.84;90.30
6032;BME280;3044;43.232;27.972;2022-11-20T02:58:53;45142.38;;;-143.84;90.34
6032;BME280;3044;43.232;27.972;2022-11-20T03:01:20;45153.81;;;-143.84;90.39
6032;BME280;3044;43.232;27.972;2022-11-20T03:03:47;45136.66;;;-143.84;90.32
6032;BME280;3044;43.232;27.972;2022-11-20T03:06:15;45151.91;;;-143.84;90.36
6032;BME280;3044;43.232;27.972;2022-11-20T03:08:42;45148.09;;;-143.84;90.21
6032;BME280;3044;43.232;27.972;2022-11-20T03:11:10;45129.03;;;-143.84;90.21
6032;BME280;3044;43.232;27.972;2022-11-20T03:13:39;45151.91;;;-143.84;90.09
6032;BME280;3044;43.232;27.972;2022-11-20T03:16:11;45151.91;;;-143.84;90.18
6032;BME280;3044;43.232;27.972;2022-11-20T03:18:38;45150.00;;;-143.84;90.16
6032;BME280;3044;43.232;27.972;2022-11-20T03:21:06;45151.91;;;-143.84;90.12
6032;BME280;3044;43.232;27.972;2022-11-20T03:23:34;45138.56;;;-143.84;90.15
6032;BME280;3044;43.232;27.972;2022-11-20T03:26:09;45153.81;;;-143.84;90.40
6032;BME280;3044;43.232;27.972;2022-11-20T03:28:38;45146.19;;;-143.84;90.32
6032;BME280;3044;43.232;27.972;2022-11-20T03:31:07;45140.47;;;-143.84;90.08
6032;BME280;3044;43.232;27.972;2022-11-20T03:33:35;45127.13;;;-143.84;90.17
6032;BME280;3044;43.232;27.972;2022-11-20T03:36:03;45151.91;;;-143.84;90.32
6032;BME280;3044;43.232;27.972;2022-11-20T03:38:30;45144.28;;;-143.84;90.22
6032;BME280;3044;43.232;27.972;2022-11-20T03:40:59;45132.84;;;-143.84;90.27
6032;BME280;3044;43.232;27.972;2022-11-20T03:43:27;45136.66;;;-143.84;90.18
6032;BME280;3044;43.232;27.972;2022-11-20T03:45:55;45110.00;;;-143.84;89.96
6032;BME280;3044;43.232;27.972;2022-11-20T03:48:23;45134.75;;;-143.84;89.92
6032;BME280;3044;43.232;27.972;2022-11-20T03:50:50;45144.28;;;-143.84;90.10
6032;BME280;3044;43.232;27.972;2022-11-20T03:53:17;45159.50;;;-143.84;90.00
6032;BME280;3044;43.232;27.972;2022-11-20T03:55:45;45151.91;;;-143.84;90.02
6032;BME280;3044;43.232;27.972;2022-11-20T03:58:16;45148.09;;;-143.84;90.18
6032;BME280;3044;43.232;27.972;2022-11-20T04:00:44;45130.94;;;-143.84;90.07
6032;BME280;3044;43.232;27.972;2022-11-20T04:03:12;45117.63;;;-143.84;90.09
6032;BME280;3044;43.232;27.972;2022-11-20T04:05:39;45132.84;;;-143.84;90.21
6032;BME280;3044;43.232;27.972;2022-11-20T04:08:06;45123.34;;;-143.84;90.41
6032;BME280;3044;43.232;27.972;2022-11-20T04:10:33;45169.03;;;-143.84;90.35
6032;BME280;3044;43.232;27.972;2022-11-20T04:13:01;45140.47;;;-143.84;90.38
6032;BME280;3044;43.232;27.972;2022-11-20T04:15:28;45142.38;;;-143.84;90.18
6032;BME280;3044;43.232;27.972;2022-11-20T04:17:55;45134.75;;;-143.84;89.95
6032;BME280;3044;43.232;27.972;2022-11-20T04:20:24;45159.50;;;-143.84;89.98
6032;BME280;3044;43.232;27.972;2022-11-20T04:22:53;45163.31;;;-143.84;89.88
6032;BME280;3044;43.232;27.972;2022-11-20T04:25:21;45138.56;;;-143.84;90.19
6032;BME280;3044;43.232;27.972;2022-11-20T04:27:48;45163.31;;;-143.84;90.32
6032;BME280;3044;43.232;27.972;2022-11-20T04:30:16;45151.91;;;-143.84;90.30
6032;BME280;3044;43.232;27.972;2022-11-20T04:32:43;45121.44;;;-143.84;90.36
6032;BME280;3044;43.232;27.972;2022-11-20T04:35:10;45151.91;;;-143.84;90.54
6032;BME280;3044;43.232;27.972;2022-11-20T04:37:38;45151.91;;;-143.84;90.51
6032;BME280;3044;43.232;27.972;2022-11-20T04:40:06;45144.28;;;-143.84;90.37
6032;BME280;3044;43.232;27.972;2022-11-20T04:42:33;45140.47;;;-143.84;90.35
6032;BME280;3044;43.232;27.972;2022-11-20T04:45:00;45159.50;;;-143.84;90.32
6032;BME280;3044;43.232;27.972;2022-11-20T04:47:28;45150.00;;;-143.84;90.27
6032;BME280;3044;43.232;27.972;2022-11-20T04:49:55;45153.81;;;-143.84;90.04
6032;BME280;3044;43.232;27.972;2022-11-20T04:52:22;45153.81;;;-143.84;90.10
6032;BME280;3044;43.232;27.972;2022-11-20T04:54:50;45172.84;;;-143.84;90.07
6032;BME280;3044;43.232;27.972;2022-11-20T04:57:18;45134.75;;;-143.84;89.95
6032;BME280;3044;43.232;27.972;2022-11-20T04:59:46;45159.50;;;-143.84;90.02
6032;BME280;3044;43.232;27.972;2022-11-20T05:02:13;45159.50;;;-143.84;90.07
6032;BME280;3044;43.232;27.972;2022-11-20T05:04:40;45148.09;;;-143.84;90.01
6032;BME280;3044;43.232;27.972;2022-11-20T05:07:07;45150.00;;;-143.84;89.97
6032;BME280;3044;43.232;27.972;2022-11-20T05:09:34;45138.56;;;-143.84;89.83
6032;BME280;3044;43.232;27.972;2022-11-20T05:12:03;45117.63;;;-143.84;89.87
6032;BME280;3044;43.232;27.972;2022-11-20T05:14:30;45150.00;;;-143.84;90.03
6032;BME280;3044;43.232;27.972;2022-11-20T05:16:57;45163.31;;;-143.84;89.92
6032;BME280;3044;43.232;27.972;2022-11-20T05:19:24;45169.03;;;-143.84;90.23
6032;BME280;3044;43.232;27.972;2022-11-20T05:21:52;45151.91;;;-143.84;90.14
6032;BME280;3044;43.232;27.972;2022-11-20T05:24:19;45146.19;;;-143.84;90.21
6032;BME280;3044;43.232;27.972;2022-11-20T05:26:46;45132.84;;;-143.84;89.88
6032;BME280;3044;43.232;27.972;2022-11-20T05:29:14;45155.69;;;-143.84;89.75
6032;BME280;3044;43.232;27.972;2022-11-20T05:31:41;45150.00;;;-143.84;89.52
6032;BME280;3044;43.232;27.972;2022-11-20T05:34:09;45170.94;;;-143.84;89.55
6032;BME280;3044;43.232;27.972;2022-11-20T05:36:36;45189.97;;;-143.84;89.16
6032;BME280;3044;43.232;27.972;2022-11-20T05:39:03;45117.63;;;-143.84;89.05
6032;BME280;3044;43.232;27.972;2022-11-20T05:41:32;45153.81;;;-143.84;88.91
6032;BME280;3044;43.232;27.972;2022-11-20T05:43:59;45153.81;;;-143.84;88.67
6032;BME280;3044;43.232;27.972;2022-11-20T05:46:28;45138.56;;;-143.84;88.75
6032;BME280;3044;43.232;27.972;2022-11-20T05:48:56;45161.41;;;-143.84;88.74
6032;BME280;3044;43.232;27.972;2022-11-20T05:51:25;45161.41;;;-143.84;88.79
6032;BME280;3044;43.232;27.972;2022-11-20T05:53:52;45165.22;;;-143.84;88.37
6032;BME280;3044;43.232;27.972;2022-11-20T05:56:20;45136.66;;;-143.84;88.39
6032;BME280;3044;43.232;27.972;2022-11-20T05:58:48;45150.00;;;-143.84;88.22
6032;BME280;3044;43.232;27.972;2022-11-20T06:01:17;45144.28;;;-143.84;87.91
6032;BME280;3044;43.232;27.972;2022-11-20T06:03:57;45140.47;;;-143.84;88.01
6032;BME280;3044;43.232;27.972;2022-11-20T06:06:24;45150.00;;;-143.84;87.92
6032;BME280;3044;43.232;27.972;2022-11-20T06:08:52;45153.81;;;-143.84;87.75
6032;BME280;3044;43.232;27.972;2022-11-20T06:11:19;45150.00;;;-143.84;87.45
6032;BME280;3044;43.232;27.972;2022-11-20T06:13:46;45146.19;;;-143.84;87.15
6032;BME280;3044;43.232;27.972;2022-11-20T06:16:16;45140.47;;;-143.84;87.05
6032;BME280;3044;43.232;27.972;2022-11-20T06:18:43;45157.59;;;-143.84;86.98
6032;BME280;3044;43.232;27.972;2022-11-20T06:21:14;45136.66;;;-143.84;86.85
6032;BME280;3044;43.232;27.972;2022-11-20T06:23:42;45130.94;;;-143.84;86.76
6032;BME280;3044;43.232;27.972;2022-11-20T06:26:11;45163.31;;;-143.84;86.74
6032;BME280;3044;43.232;27.972;2022-11-20T06:28:39;45127.13;;;-143.84;86.33
6032;BME280;3044;43.232;27.972;2022-11-20T06:31:07;45142.38;;;-143.84;86.14
6032;BME280;3044;43.232;27.972;2022-11-20T06:33:34;45146.19;;;-143.84;86.11
6032;BME280;3044;43.232;27.972;2022-11-20T06:36:03;45134.75;;;-143.84;86.15
6032;BME280;3044;43.232;27.972;2022-11-20T06:38:32;45157.59;;;-143.84;86.05
6032;BME280;3044;43.232;27.972;2022-11-20T06:40:59;45121.44;;;-143.84;86.05
6032;BME280;3044;43.232;27.972;2022-11-20T06:43:28;45146.19;;;-143.84;86.00
6032;BME280;3044;43.232;27.972;2022-11-20T06:45:56;45155.69;;;-143.84;85.01
6032;BME280;3044;43.232;27.972;2022-11-20T06:48:25;45146.19;;;-143.84;84.24
6032;BME280;3044;43.232;27.972;2022-11-20T06:50:53;45123.34;;;-143.84;83.62
6032;BME280;3044;43.232;27.972;2022-11-20T06:53:21;45151.91;;;-143.84;83.63
6032;BME280;3044;43.232;27.972;2022-11-20T06:55:50;45121.44;;;-143.84;83.19
6032;BME280;3044;43.232;27.972;2022-11-20T06:58:17;45138.56;;;-143.84;83.29
6032;BME280;3044;43.232;27.972;2022-11-20T07:00:44;45132.84;;;-143.84;83.12
6032;BME280;3044;43.232;27.972;2022-11-20T07:03:12;45129.03;;;-143.84;82.67
6032;BME280;3044;43.232;27.972;2022-11-20T07:05:39;45125.22;;;-143.84;83.15
6032;BME280;3044;43.232;27.972;2022-11-20T07:08:07;45132.84;;;-143.84;82.95
6032;BME280;3044;43.232;27.972;2022-11-20T07:10:34;45155.69;;;-143.84;82.59
6032;BME280;3044;43.232;27.972;2022-11-20T07:13:03;45151.91;;;-143.84;82.34
6032;BME280;3044;43.232;27.972;2022-11-20T07:15:30;45197.59;;;-143.84;82.11
6032;BME280;3044;43.232;27.972;2022-11-20T07:17:58;45123.34;;;-143.84;82.46
6032;BME280;3044;43.232;27.972;2022-11-20T07:20:26;45132.84;;;-143.84;82.53
6032;BME280;3044;43.232;27.972;2022-11-20T07:22:54;45134.75;;;-143.84;82.52
6032;BME280;3044;43.232;27.972;2022-11-20T07:25:21;45144.28;;;-143.84;82.22
6032;BME280;3044;43.232;27.972;2022-11-20T07:27:49;45142.38;;;-143.84;82.27
6032;BME280;3044;43.232;27.972;2022-11-20T07:30:18;45150.00;;;-143.84;82.33
6032;BME280;3044;43.232;27.972;2022-11-20T07:32:46;45146.19;;;-143.84;82.50
6032;BME280;3044;43.232;27.972;2022-11-20T07:35:13;45136.66;;;-143.84;81.98
6032;BME280;3044;43.232;27.972;2022-11-20T07:37:41;45132.84;;;-143.84;82.12
6032;BME280;3044;43.232;27.972;2022-11-20T07:40:08;45115.72;;;-143.84;81.96
6032;BME280;3044;43.232;27.972;2022-11-20T07:42:36;45140.47;;;-143.84;82.11
6032;BME280;3044;43.232;27.972;2022-11-20T07:45:03;45151.91;;;-143.84;81.82
6032;BME280;3044;43.232;27.972;2022-11-20T07:47:36;45167.13;;;-143.84;82.18
6032;BME280;3044;43.232;27.972;2022-11-20T07:50:04;45121.44;;;-143.84;81.58
6032;BME280;3044;43.232;27.972;2022-11-20T07:52:31;45138.56;;;-143.84;81.78
6032;BME280;3044;43.232;27.972;2022-11-20T07:54:58;45138.56;;;-143.84;81.42
6032;BME280;3044;43.232;27.972;2022-11-20T07:57:25;45163.31;;;-143.84;81.85
6032;BME280;3044;43.232;27.972;2022-11-20T07:59:52;45148.09;;;-143.84;81.93
6032;BME280;3044;43.232;27.972;2022-11-20T08:02:19;45129.03;;;-143.84;82.33
6032;BME280;3044;43.232;27.972;2022-11-20T08:04:48;45134.75;;;-143.84;82.25
6032;BME280;3044;43.232;27.972;2022-11-20T08:07:15;45127.13;;;-143.84;82.26
6032;BME280;3044;43.232;27.972;2022-11-20T08:09:42;45130.94;;;-143.84;82.12
6032;BME280;3044;43.232;27.972;2022-11-20T08:12:10;45134.75;;;-143.84;82.39
6032;BME280;3044;43.232;27.972;2022-11-20T08:15:01;45142.38;;;-143.84;81.96
6032;BME280;3044;43.232;27.972;2022-11-20T08:17:28;45098.56;;;-143.84;81.89
6032;BME280;3044;43.232;27.972;2022-11-20T08:19:57;45125.22;;;-143.84;81.94
6032;BME280;3044;43.232;27.972;2022-11-20T08:22:24;45117.63;;;-143.84;81.45
6032;BME280;3044;43.232;27.972;2022-11-20T08:24:51;45129.03;;;-143.84;81.69
6032;BME280;3044;43.232;27.972;2022-11-20T08:27:18;45134.75;;;-143.84;81.91
6032;BME280;3044;43.232;27.972;2022-11-20T08:29:48;45117.63;;;-143.84;81.49
6032;BME280;3044;43.232;27.972;2022-11-20T08:32:19;45140.47;;;-143.84;81.78
6032;BME280;3044;43.232;27.972;2022-11-20T08:34:50;45151.91;;;-143.84;81.71
6032;BME280;3044;43.232;27.972;2022-11-20T08:37:20;45113.81;;;-143.84;81.83
6032;BME280;3044;43.232;27.972;2022-11-20T08:39:47;45136.66;;;-143.84;81.81
6032;BME280;3044;43.232;27.972;2022-11-20T08:42:14;45129.03;;;-143.84;81.79
6032;BME280;3044;43.232;27.972;2022-11-20T08:44:41;45130.94;;;-143.84;81.83
6032;BME280;3044;43.232;27.972;2022-11-20T08:47:09;45130.94;;;-143.84;81.79
6032;BME280;3044;43.232;27.972;2022-11-20T08:49:36;45127.13;;;-143.84;81.53
6032;BME280;3044;43.232;27.972;2022-11-20T08:52:03;45150.00;;;-143.84;81.79
6032;BME280;3044;43.232;27.972;2022-11-20T08:54:32;45121.44;;;-143.84;81.66
6032;BME280;3044;43.232;27.972;2022-11-20T08:56:59;45115.72;;;-143.84;81.18
6032;BME280;3044;43.232;27.972;2022-11-20T08:59:26;45125.22;;;-143.84;81.24
6032;BME280;3044;43.232;27.972;2022-11-20T09:01:54;45134.75;;;-143.84;81.23
6032;BME280;3044;43.232;27.972;2022-11-20T09:04:21;45130.94;;;-143.84;81.06
6032;BME280;3044;43.232;27.972;2022-11-20T09:06:48;45148.09;;;-143.84;81.48
6032;BME280;3044;43.232;27.972;2022-11-20T09:09:16;45132.84;;;-143.84;81.13
6032;BME280;3044;43.232;27.972;2022-11-20T09:11:46;45115.72;;;-143.84;80.87
6032;BME280;3044;43.232;27.972;2022-11-20T09:14:15;45119.53;;;-143.84;81.00
6032;BME280;3044;43.232;27.972;2022-11-20T09:16:44;45132.84;;;-143.84;81.24
6032;BME280;3044;43.232;27.972;2022-11-20T09:19:11;45129.03;;;-143.84;81.16
6032;BME280;3044;43.232;27.972;2022-11-20T09:21:39;45130.94;;;-143.84;81.16
6032;BME280;3044;43.232;27.972;2022-11-20T09:24:06;45130.94;;;-143.84;80.71
6032;BME280;3044;43.232;27.972;2022-11-20T09:26:33;45146.19;;;-143.84;80.96
6032;BME280;3044;43.232;27.972;2022-11-20T09:29:02;45134.75;;;-143.84;80.48
6032;BME280;3044;43.232;27.972;2022-11-20T09:31:29;45117.63;;;-143.84;80.81
6032;BME280;3044;43.232;27.972;2022-11-20T09:33:57;45144.28;;;-143.84;80.63
6032;BME280;3044;43.232;27.972;2022-11-20T09:36:24;45113.81;;;-143.84;80.47
6032;BME280;3044;43.232;27.972;2022-11-20T09:38:52;45127.13;;;-143.84;80.71
6032;BME280;3044;43.232;27.972;2022-11-20T09:41:42;45111.91;;;-143.84;80.42
6032;BME280;3044;43.232;27.972;2022-11-20T09:44:30;45151.91;;;-143.84;80.36
6032;BME280;3044;43.232;27.972;2022-11-20T09:47:05;45110.00;;;-143.84;80.34
6032;BME280;3044;43.232;27.972;2022-11-20T09:49:45;45121.44;;;-143.84;80.45
6032;BME280;3044;43.232;27.972;2022-11-20T09:52:25;45148.09;;;-143.84;80.28
6032;BME280;3044;43.232;27.972;2022-11-20T09:54:57;45111.91;;;-143.84;80.20
6032;BME280;3044;43.232;27.972;2022-11-20T09:57:33;45132.84;;;-143.84;79.50
6032;BME280;3044;43.232;27.972;2022-11-20T10:00:06;45117.63;;;-143.84;79.45
6032;BME280;3044;43.232;27.972;2022-11-20T10:02:42;45117.63;;;-143.84;78.77
6032;BME280;3044;43.232;27.972;2022-11-20T10:05:15;45121.44;;;-143.84;78.90
6032;BME280;3044;43.232;27.972;2022-11-20T10:07:48;45104.28;;;-143.84;78.32
6032;BME280;3044;43.232;27.972;2022-11-20T10:10:29;45121.44;;;-143.84;77.84
6032;BME280;3044;43.232;27.972;2022-11-20T10:13:20;45138.56;;;-143.84;78.16
6032;BME280;3044;43.232;27.972;2022-11-20T10:16:03;45138.56;;;-143.84;77.63
6032;BME280;3044;43.232;27.972;2022-11-20T10:18:56;45110.00;;;-143.84;77.17
6032;BME280;3044;43.232;27.972;2022-11-20T10:21:37;45113.81;;;-143.84;77.41
6032;BME280;3044;43.232;27.972;2022-11-20T10:24:26;45119.53;;;-143.84;77.52
6032;BME280;3044;43.232;27.972;2022-11-20T10:27:09;45125.22;;;-143.84;77.11
6032;BME280;3044;43.232;27.972;2022-11-20T10:29:46;45125.22;;;-143.84;77.36
6032;BME280;3044;43.232;27.972;2022-11-20T10:32:18;45121.44;;;-143.84;77.14
6032;BME280;3044;43.232;27.972;2022-11-20T10:34:50;45132.84;;;-143.84;77.60
6032;BME280;3044;43.232;27.972;2022-11-20T10:37:21;45117.63;;;-143.84;77.49
6032;BME280;3044;43.232;27.972;2022-11-20T10:39:53;45117.63;;;-143.84;77.27
6032;BME280;3044;43.232;27.972;2022-11-20T10:42:30;45121.44;;;-143.84;77.20
6032;BME280;3044;43.232;27.972;2022-11-20T10:45:04;45125.22;;;-143.84;76.85
6032;BME280;3044;43.232;27.972;2022-11-20T10:47:39;45110.00;;;-143.84;76.58
6032;BME280;3044;43.232;27.972;2022-11-20T10:50:11;45117.63;;;-143.84;76.47
6032;BME280;3044;43.232;27.972;2022-11-20T10:52:50;45132.84;;;-143.84;76.41
6032;BME280;3044;43.232;27.972;2022-11-20T10:55:30;45102.38;;;-143.84;76.63
6032;BME280;3044;43.232;27.972;2022-11-20T10:58:04;45121.44;;;-143.84;76.69
6032;BME280;3044;43.232;27.972;2022-11-20T11:00:37;45129.03;;;-143.84;76.67
6032;BME280;3044;43.232;27.972;2022-11-20T11:03:18;45127.13;;;-143.84;76.77
6032;BME280;3044;43.232;27.972;2022-11-20T11:05:49;45170.94;;;-143.84;76.19
6032;BME280;3044;43.232;27.972;2022-11-20T11:08:19;45113.81;;;-143.84;76.09
6032;BME280;3044;43.232;27.972;2022-11-20T11:10:51;45129.03;;;-143.84;75.89
6032;BME280;3044;43.232;27.972;2022-11-20T11:13:20;45113.81;;;-143.84;75.95
6032;BME280;3044;43.232;27.972;2022-11-20T11:15:47;45087.16;;;-143.84;75.65
6032;BME280;3044;43.232;27.972;2022-11-20T11:18:25;45106.19;;;-143.84;75.46
6032;BME280;3044;43.232;27.972;2022-11-20T11:20:54;45077.63;;;-143.84;75.48
6032;BME280;3044;43.232;27.972;2022-11-20T11:23:33;45148.09;;;-143.84;75.83
6032;BME280;3044;43.232;27.972;2022-11-20T11:26:03;45119.53;;;-143.84;75.61
6032;BME280;3044;43.232;27.972;2022-11-20T11:28:31;45123.34;;;-143.84;75.81
6032;BME280;3044;43.232;27.972;2022-11-20T11:30:58;45104.28;;;-143.84;75.72
6032;BME280;3044;43.232;27.972;2022-11-20T11:33:28;45117.63;;;-143.84;75.63
6032;BME280;3044;43.232;27.972;2022-11-20T11:35:57;45102.38;;;-143.84;75.77
6032;BME280;3044;43.232;27.972;2022-11-20T11:38:29;45117.63;;;-143.84;75.64
6032;BME280;3044;43.232;27.972;2022-11-20T11:40:57;45092.88;;;-143.84;75.78
6032;BME280;3044;43.232;27.972;2022-11-20T11:43:26;45119.53;;;-143.84;75.52
6032;BME280;3044;43.232;27.972;2022-11-20T11:46:30;45110.00;;;-143.84;75.67
6032;BME280;3044;43.232;27.972;2022-11-20T11:49:01;45121.44;;;-143.84;75.83
6032;BME280;3044;43.232;27.972;2022-11-20T11:51:35;45110.00;;;-143.84;75.61
6032;BME280;3044;43.232;27.972;2022-11-20T11:54:22;45138.56;;;-143.84;75.78
6032;BME280;3044;43.232;27.972;2022-11-20T11:56:51;45094.78;;;-143.84;75.90
6032;BME280;3044;43.232;27.972;2022-11-20T11:59:26;45129.03;;;-143.84;76.02
6032;BME280;3044;43.232;27.972;2022-11-20T12:01:57;45132.84;;;-143.84;75.65
6032;BME280;3044;43.232;27.972;2022-11-20T12:04:40;45127.13;;;-143.84;75.54
6032;BME280;3044;43.232;27.972;2022-11-20T12:07:13;45148.09;;;-143.84;75.60
6032;BME280;3044;43.232;27.972;2022-11-20T12:09:47;45161.41;;;-143.84;75.75
6032;BME280;3044;43.232;27.972;2022-11-20T12:12:20;45096.66;;;-143.84;75.73
6032;BME280;3044;43.232;27.972;2022-11-20T12:14:49;45098.56;;;-143.84;75.68
6032;BME280;3044;43.232;27.972;2022-11-20T12:17:19;45108.09;;;-143.84;75.71
6032;BME280;3044;43.232;27.972;2022-11-20T12:19:47;45108.09;;;-143.84;75.12
6032;BME280;3044;43.232;27.972;2022-11-20T12:22:22;45119.53;;;-143.84;75.01
6032;BME280;3044;43.232;27.972;2022-11-20T12:24:57;45130.94;;;-143.84;74.94
6032;BME280;3044;43.232;27.972;2022-11-20T12:27:49;45100.47;;;-143.84;75.15
6032;BME280;3044;43.232;27.972;2022-11-20T12:30:23;45119.53;;;-143.84;75.03
6032;BME280;3044;43.232;27.972;2022-11-20T12:33:27;45148.09;;;-143.84;75.03
6032;BME280;3044;43.232;27.972;2022-11-20T12:36:09;45108.09;;;-143.84;74.96
6032;BME280;3044;43.232;27.972;2022-11-20T12:39:03;45119.53;;;-143.84;75.09
6032;BME280;3044;43.232;27.972;2022-11-20T12:41:54;45110.00;;;-143.84;75.24
6032;BME280;3044;43.232;27.972;2022-11-20T12:44:59;45110.00;;;-143.84;75.13
6032;BME280;3044;43.232;27.972;2022-11-20T12:47:54;45104.28;;;-143.84;75.02
6032;BME280;3044;43.232;27.972;2022-11-20T12:50:32;45100.47;;;-143.84;74.48
6032;BME280;3044;43.232;27.972;2022-11-20T12:53:14;45115.72;;;-143.84;74.37
6032;BME280;3044;43.232;27.972;2022-11-20T12:55:49;45106.19;;;-143.84;74.81
6032;BME280;3044;43.232;27.972;2022-11-20T12:58:25;45102.38;;;-143.84;74.56
6032;BME280;3044;43.232;27.972;2022-11-20T13:01:01;45102.38;;;-143.84;74.49
6032;BME280;3044;43.232;27.972;2022-11-20T13:03:39;45132.84;;;-143.84;74.33
6032;BME280;3044;43.232;27.972;2022-11-20T13:06:13;45089.06;;;-143.84;74.10
6032;BME280;3044;43.232;27.972;2022-11-20T13:08:47;45100.47;;;-143.84;74.50